Time;durP1;ratioP1;P1;durP2;ratioP2;P2;SDS_P1;SDS_P2;PMS_P1;PMS_P2;Temp;Humidity;BMP_temperature;BMP_pressure;BME280_temperature;BME280_humidity;BME280_pressure;Samples;Min_cycle;Max_cycle;Signal;HPM_P1;HPM_P2
2023/04/25 00:00:30;;;;;;;28.67;11.32;;;5.10;99.90;;;;;;5013390;28;20046;-73
2023/04/25 00:02:56;;;;;;;26.63;10.88;;;5.00;99.90;;;;;;5015952;28;20057;-73
2023/04/25 00:05:25;;;;;;;24.98;9.98;;;4.90;99.90;;;;;;5017169;28;20441;-72
2023/04/25 00:07:51;;;;;;;24.48;10.02;;;4.90;99.90;;;;;;5030946;28;20477;-73
2023/04/25 00:10:17;;;;;;;28.95;10.63;;;4.80;99.90;;;;;;5030619;28;20033;-73
2023/04/25 00:12:43;;;;;;;26.75;11.55;;;4.70;99.90;;;;;;5027384;28;20038;-73
2023/04/25 00:15:09;;;;;;;29.83;11.75;;;4.60;99.90;;;;;;5032948;28;20041;-73
2023/04/25 00:17:35;;;;;;;25.15;10.55;;;4.60;99.90;;;;;;5032920;28;20048;-73
2023/04/25 00:20:04;;;;;;;58.88;14.48;;;4.50;99.90;;;;;;5033317;28;20425;-73
2023/04/25 00:22:30;;;;;;;30.88;12.30;;;4.40;99.90;;;;;;5033354;28;20145;-73
2023/04/25 00:24:59;;;;;;;33.58;13.35;;;4.40;99.90;;;;;;5033401;28;20485;-73
2023/04/25 00:27:25;;;;;;;29.70;12.10;;;4.30;99.90;;;;;;5013199;28;20049;-73
2023/04/25 00:29:51;;;;;;;34.80;12.75;;;4.20;99.90;;;;;;5012932;28;20038;-73
2023/04/25 00:32:16;;;;;;;33.15;11.75;;;4.10;99.90;;;;;;5012718;28;20490;-73
2023/04/25 00:34:42;;;;;;;35.83;13.02;;;4.10;99.90;;;;;;5020463;28;20037;-73
2023/04/25 00:37:07;;;;;;;31.92;12.02;;;4.10;99.90;;;;;;5028820;28;20405;-73
2023/04/25 00:39:33;;;;;;;31.50;12.45;;;4.00;99.90;;;;;;5032335;28;20060;-73
2023/04/25 00:42:00;;;;;;;33.53;14.35;;;4.00;99.90;;;;;;5000282;28;20056;-73
2023/04/25 00:44:27;;;;;;;34.53;14.40;;;4.00;99.90;;;;;;5051208;28;20405;-73
2023/04/25 00:46:54;;;;;;;37.17;15.85;;;4.00;99.90;;;;;;5030903;28;20038;-73
2023/04/25 00:49:19;;;;;;;43.40;15.80;;;3.90;99.90;;;;;;5021931;28;20045;-73
2023/04/25 00:51:45;;;;;;;34.22;13.60;;;3.90;99.90;;;;;;5012878;28;20038;-73
2023/04/25 00:54:15;;;;;;;32.28;15.13;;;3.90;99.90;;;;;;5046647;28;20233;-73
2023/04/25 00:56:41;;;;;;;35.28;14.75;;;3.90;99.90;;;;;;5032066;28;20045;-73
2023/04/25 00:59:06;;;;;;;37.20;16.45;;;3.90;99.90;;;;;;5015896;28;20044;-73
2023/04/25 01:01:32;;;;;;;37.80;15.20;;;4.00;99.90;;;;;;5015094;28;20025;-73
2023/04/25 01:03:59;;;;;;;44.17;17.48;;;4.00;99.90;;;;;;5033540;28;20079;-73
2023/04/25 01:06:24;;;;;;;33.63;15.02;;;4.10;99.90;;;;;;5020879;28;20042;-73
2023/04/25 01:08:51;;;;;;;35.65;16.25;;;4.10;99.90;;;;;;5028702;28;20046;-73
2023/04/25 01:11:17;;;;;;;31.52;14.02;;;4.10;99.90;;;;;;5028920;28;20394;-73
2023/04/25 01:13:43;;;;;;;32.13;12.68;;;4.10;99.90;;;;;;5045711;28;20116;-73
2023/04/25 01:16:09;;;;;;;30.90;12.40;;;4.00;99.90;;;;;;5023059;28;20114;-73
2023/04/25 01:18:35;;;;;;;27.10;12.23;;;4.00;99.90;;;;;;5031808;28;20083;-73
2023/04/25 01:21:10;;;;;;;29.52;13.18;;;3.90;99.90;;;;;;5015273;28;20391;-73
2023/04/25 01:23:38;;;;;;;29.20;12.77;;;3.90;99.90;;;;;;5017207;28;20445;-73
2023/04/25 01:26:04;;;;;;;35.20;14.00;;;3.90;99.90;;;;;;5014217;28;20343;-73
2023/04/25 01:28:30;;;;;;;38.17;15.57;;;3.90;99.90;;;;;;5022019;28;20068;-73
2023/04/25 01:30:56;;;;;;;24.25;12.80;;;4.00;99.90;;;;;;5030090;28;20037;-73
2023/04/25 01:33:22;;;;;;;30.35;12.73;;;4.00;99.90;;;;;;5030636;28;20052;-73
2023/04/25 01:35:48;;;;;;;28.45;13.48;;;4.10;99.90;;;;;;5025463;28;20390;-73
2023/04/25 01:38:14;;;;;;;26.13;13.18;;;4.20;99.90;;;;;;5028177;28;20108;-73
2023/04/25 01:40:41;;;;;;;25.00;11.00;;;4.30;99.90;;;;;;5011482;28;20041;-73
2023/04/25 01:43:10;;;;;;;30.17;13.52;;;4.40;99.90;;;;;;5039290;28;20041;-73
2023/04/25 01:45:39;;;;;;;39.00;15.48;;;4.50;99.90;;;;;;5010292;28;20164;-73
2023/04/25 01:48:05;;;;;;;37.13;15.07;;;4.50;99.90;;;;;;5013886;28;20099;-73
2023/04/25 01:50:30;;;;;;;32.88;14.73;;;4.60;99.90;;;;;;5023354;28;20037;-73
2023/04/25 01:52:56;;;;;;;37.78;16.10;;;4.70;99.90;;;;;;5031182;28;20056;-73
2023/04/25 01:55:22;;;;;;;27.52;11.57;;;4.70;99.90;;;;;;5031082;28;20490;-73
2023/04/25 01:57:47;;;;;;;34.38;13.82;;;4.70;99.90;;;;;;5035190;28;20040;-73
2023/04/25 02:00:13;;;;;;;29.23;13.05;;;4.80;99.90;;;;;;5028445;28;20038;-73
2023/04/25 02:02:39;;;;;;;24.98;11.55;;;4.80;99.90;;;;;;5023235;28;20034;-73
2023/04/25 02:05:05;;;;;;;33.72;13.65;;;4.80;99.90;;;;;;5032943;28;20452;-73
2023/04/25 02:07:32;;;;;;;24.80;11.65;;;4.80;99.90;;;;;;5028902;28;20044;-73
2023/04/25 02:09:57;;;;;;;29.55;13.20;;;4.90;99.90;;;;;;5028821;28;20033;-73
2023/04/25 02:12:23;;;;;;;23.92;10.43;;;4.90;99.90;;;;;;5030198;28;20046;-73
2023/04/25 02:14:48;;;;;;;28.05;11.60;;;4.90;99.90;;;;;;5033770;28;20030;-73
2023/04/25 02:17:14;;;;;;;27.60;11.10;;;4.90;99.90;;;;;;4998973;28;20046;-73
2023/04/25 02:19:39;;;;;;;31.40;11.75;;;4.90;99.90;;;;;;5032495;28;20033;-73
2023/04/25 02:22:05;;;;;;;29.23;13.43;;;4.90;99.90;;;;;;5030627;28;20035;-74
2023/04/25 02:24:31;;;;;;;32.72;13.55;;;4.90;99.90;;;;;;5030676;28;20037;-73
2023/04/25 02:26:57;;;;;;;25.83;12.18;;;4.90;99.90;;;;;;5013948;28;20034;-73
2023/04/25 02:29:23;;;;;;;30.95;12.55;;;4.80;99.90;;;;;;5033525;28;20455;-73
2023/04/25 02:31:48;;;;;;;29.05;12.80;;;4.80;99.90;;;;;;5013565;28;20526;-73
2023/04/25 02:34:14;;;;;;;28.80;12.18;;;4.80;99.90;;;;;;5028013;28;20086;-73
2023/04/25 02:36:39;;;;;;;30.80;14.95;;;4.80;99.90;;;;;;5024178;28;20516;-73
2023/04/25 02:39:05;;;;;;;29.48;13.40;;;4.80;99.90;;;;;;5032761;28;20489;-73
2023/04/25 02:41:31;;;;;;;29.77;12.60;;;4.90;99.90;;;;;;5002085;28;20053;-73
2023/04/25 02:43:56;;;;;;;25.83;10.90;;;4.90;99.90;;;;;;5019560;28;20040;-74
2023/04/25 02:46:22;;;;;;;24.80;9.43;;;4.80;99.90;;;;;;5027951;28;20041;-74
2023/04/25 02:48:47;;;;;;;22.33;8.80;;;4.80;99.90;;;;;;5027846;28;20490;-73
2023/04/25 02:51:13;;;;;;;26.23;8.50;;;4.90;99.90;;;;;;5028996;28;20401;-73
2023/04/25 02:53:39;;;;;;;22.80;8.68;;;4.90;99.90;;;;;;5035838;28;20069;-73
2023/04/25 02:56:05;;;;;;;19.75;7.32;;;4.90;99.90;;;;;;5019711;28;20065;-73
2023/04/25 02:58:33;;;;;;;19.27;7.07;;;4.90;99.90;;;;;;5026516;28;20044;-73
2023/04/25 03:00:58;;;;;;;17.98;7.90;;;4.90;99.90;;;;;;5010711;28;20046;-73
2023/04/25 03:03:24;;;;;;;23.70;8.52;;;4.90;99.90;;;;;;4999368;28;20052;-74
2023/04/25 03:05:50;;;;;;;20.85;7.55;;;4.90;99.90;;;;;;5032192;28;20035;-73
2023/04/25 03:08:17;;;;;;;24.30;7.28;;;4.90;99.90;;;;;;5029998;28;20034;-74
2023/04/25 03:10:43;;;;;;;23.25;7.45;;;4.90;99.90;;;;;;5000997;28;20037;-74
2023/04/25 03:13:09;;;;;;;20.90;7.78;;;4.80;99.90;;;;;;5012177;28;20502;-74
2023/04/25 03:15:35;;;;;;;19.83;6.25;;;4.80;99.90;;;;;;5016988;28;20038;-73
2023/04/25 03:18:00;;;;;;;20.50;6.70;;;4.80;99.90;;;;;;5039103;28;20080;-73
2023/04/25 03:20:26;;;;;;;24.67;7.97;;;4.80;99.90;;;;;;5014626;28;20112;-73
2023/04/25 03:22:52;;;;;;;19.65;7.90;;;4.80;99.90;;;;;;5028593;28;20034;-73
2023/04/25 03:25:17;;;;;;;23.58;7.22;;;4.80;99.90;;;;;;5033927;28;20045;-73
2023/04/25 03:27:43;;;;;;;21.90;7.15;;;4.70;99.90;;;;;;5023638;28;20051;-73
2023/04/25 03:30:09;;;;;;;22.88;6.68;;;4.70;99.90;;;;;;5000343;28;20553;-73
2023/04/25 03:32:35;;;;;;;19.85;7.03;;;4.70;99.90;;;;;;5014216;28;20037;-73
2023/04/25 03:35:00;;;;;;;21.77;6.45;;;4.70;99.90;;;;;;5031847;28;20033;-73
2023/04/25 03:37:26;;;;;;;21.40;6.35;;;4.70;99.90;;;;;;5029233;28;20078;-73
2023/04/25 03:39:51;;;;;;;19.20;5.60;;;4.70;99.90;;;;;;5028842;28;20049;-73
2023/04/25 03:42:17;;;;;;;20.95;5.53;;;4.60;99.90;;;;;;5033885;28;20045;-74
2023/04/25 03:44:43;;;;;;;16.85;5.20;;;4.60;99.90;;;;;;5039309;28;20029;-73
2023/04/25 03:47:08;;;;;;;16.42;5.22;;;4.60;99.90;;;;;;5034127;28;20484;-74
2023/04/25 03:49:35;;;;;;;19.13;5.18;;;4.60;99.90;;;;;;5021219;28;20131;-73
2023/04/25 03:52:01;;;;;;;15.43;4.97;;;4.60;99.90;;;;;;5016551;28;20417;-73
2023/04/25 03:54:26;;;;;;;13.80;4.70;;;4.60;99.90;;;;;;5016136;28;20038;-73
2023/04/25 03:56:52;;;;;;;17.58;4.60;;;4.60;99.90;;;;;;5039184;28;20033;-74
2023/04/25 03:59:17;;;;;;;13.38;4.28;;;4.60;99.90;;;;;;5023134;28;20046;-73
2023/04/25 04:01:43;;;;;;;13.25;4.28;;;4.60;99.90;;;;;;5013853;28;20513;-73
2023/04/25 04:04:08;;;;;;;14.90;4.38;;;4.60;99.90;;;;;;5032432;28;20540;-73
2023/04/25 04:06:34;;;;;;;17.48;4.82;;;4.50;99.90;;;;;;5030836;28;20371;-73
2023/04/25 04:08:59;;;;;;;15.80;4.07;;;4.50;99.90;;;;;;5025490;28;20041;-74
2023/04/25 04:11:25;;;;;;;15.15;4.47;;;4.50;99.90;;;;;;5013318;28;20049;-74
2023/04/25 04:13:51;;;;;;;11.93;3.97;;;4.50;99.90;;;;;;5024272;28;20128;-74
2023/04/25 04:16:16;;;;;;;14.40;4.45;;;4.50;99.90;;;;;;5024470;28;20038;-74
2023/04/25 04:18:42;;;;;;;14.65;4.43;;;4.40;99.90;;;;;;5016234;28;20304;-74
2023/04/25 04:21:08;;;;;;;14.98;4.28;;;4.30;99.90;;;;;;5033753;28;20036;-74
2023/04/25 04:23:33;;;;;;;13.70;3.85;;;4.30;99.90;;;;;;5016474;28;20029;-74
2023/04/25 04:25:59;;;;;;;11.38;4.13;;;4.30;99.90;;;;;;5011174;28;20449;-73
2023/04/25 04:28:26;;;;;;;14.35;4.25;;;4.30;99.90;;;;;;5031865;28;20619;-74
2023/04/25 04:30:52;;;;;;;12.32;3.72;;;4.30;99.90;;;;;;5025973;28;20038;-74
2023/04/25 04:33:21;;;;;;;13.05;4.32;;;4.30;99.90;;;;;;5014239;28;20103;-73
2023/04/25 04:35:47;;;;;;;12.55;3.60;;;4.30;99.90;;;;;;5032253;28;20045;-74
2023/04/25 04:38:14;;;;;;;13.45;3.90;;;4.30;99.90;;;;;;5032502;28;20132;-74
2023/04/25 04:40:42;;;;;;;13.80;3.90;;;4.30;99.90;;;;;;5030981;28;20075;-73
2023/04/25 04:43:10;;;;;;;9.73;3.83;;;4.30;99.90;;;;;;5015866;28;20178;-74
2023/04/25 04:45:37;;;;;;;10.30;3.78;;;4.40;99.90;;;;;;5032507;28;20379;-74
2023/04/25 04:48:05;;;;;;;10.98;3.35;;;4.40;99.90;;;;;;5032256;28;20073;-74
2023/04/25 04:50:32;;;;;;;11.68;3.63;;;4.40;99.90;;;;;;5016028;28;20033;-74
2023/04/25 04:52:58;;;;;;;12.75;3.42;;;4.40;99.90;;;;;;5031830;28;20402;-74
2023/04/25 04:55:23;;;;;;;10.43;3.92;;;4.40;99.90;;;;;;5014631;28;20043;-74
2023/04/25 04:57:49;;;;;;;11.60;4.18;;;4.50;99.90;;;;;;5026678;28;20037;-74
2023/04/25 05:00:15;;;;;;;12.13;4.07;;;4.40;99.90;;;;;;5032055;28;20049;-73
2023/04/25 05:02:41;;;;;;;13.73;4.18;;;4.50;99.90;;;;;;5015707;28;20124;-73
2023/04/25 05:05:07;;;;;;;13.65;3.53;;;4.50;99.90;;;;;;5015845;28;20144;-74
2023/04/25 05:07:33;;;;;;;12.25;3.88;;;4.50;99.90;;;;;;5019997;28;20402;-74
2023/04/25 05:09:59;;;;;;;9.98;4.22;;;4.50;99.90;;;;;;5012357;28;20037;-74
2023/04/25 05:12:25;;;;;;;13.32;5.10;;;4.60;99.90;;;;;;5019014;28;20055;-73
2023/04/25 05:14:50;;;;;;;12.55;4.50;;;4.60;99.90;;;;;;5014175;28;20026;-74
2023/04/25 05:17:16;;;;;;;15.98;5.00;;;4.60;99.90;;;;;;5013223;28;20037;-73
2023/04/25 05:19:41;;;;;;;14.50;5.10;;;4.60;99.90;;;;;;5012236;28;20050;-74
2023/04/25 05:22:07;;;;;;;12.77;4.70;;;4.70;99.90;;;;;;5015488;28;20034;-74
2023/04/25 05:24:32;;;;;;;13.35;4.72;;;4.70;99.90;;;;;;5031262;28;20405;-74
2023/04/25 05:26:58;;;;;;;10.45;4.35;;;4.80;99.90;;;;;;5038660;28;20041;-73
2023/04/25 05:29:24;;;;;;;10.80;4.93;;;4.70;99.90;;;;;;5031374;28;20041;-73
2023/04/25 05:31:49;;;;;;;9.65;4.03;;;4.70;99.90;;;;;;5017984;28;20078;-75
2023/04/25 05:34:16;;;;;;;10.85;4.03;;;4.70;99.90;;;;;;5031068;28;20497;-74
2023/04/25 05:36:42;;;;;;;11.07;4.43;;;4.70;99.90;;;;;;5015096;28;20045;-74
2023/04/25 05:39:08;;;;;;;12.32;4.90;;;4.60;99.90;;;;;;5010300;28;20037;-73
2023/04/25 05:41:34;;;;;;;9.13;4.30;;;4.60;99.90;;;;;;5019168;28;20121;-74
2023/04/25 05:43:59;;;;;;;12.93;4.68;;;4.60;99.90;;;;;;5031653;28;20203;-73
2023/04/25 05:46:25;;;;;;;12.82;4.88;;;4.60;99.90;;;;;;5031094;28;20040;-74
2023/04/25 05:48:50;;;;;;;14.45;4.53;;;4.70;99.90;;;;;;5014985;28;20124;-74
2023/04/25 05:51:18;;;;;;;11.98;3.65;;;4.80;99.90;;;;;;5029134;28;20410;-76
2023/04/25 05:53:44;;;;;;;13.27;3.85;;;5.00;99.90;;;;;;5031428;28;20390;-74
2023/04/25 05:56:09;;;;;;;12.40;3.95;;;5.10;99.90;;;;;;5032977;28;20034;-73
2023/04/25 05:58:35;;;;;;;11.82;3.65;;;5.30;99.90;;;;;;5032556;28;20505;-72
2023/04/25 06:01:01;;;;;;;11.13;3.65;;;5.30;99.90;;;;;;5023533;28;20041;-74
2023/04/25 06:03:26;;;;;;;10.45;3.05;;;5.40;99.90;;;;;;5028776;28;20096;-74
2023/04/25 06:05:52;;;;;;;12.75;3.47;;;5.50;99.90;;;;;;5011986;28;20033;-75
2023/04/25 06:08:17;;;;;;;11.55;3.17;;;5.50;99.90;;;;;;5004662;28;20052;-75
2023/04/25 06:10:43;;;;;;;11.13;2.80;;;5.50;99.90;;;;;;5010673;28;20033;-75
2023/04/25 06:13:08;;;;;;;8.35;2.70;;;5.60;99.90;;;;;;5034198;28;20069;-75
2023/04/25 06:15:34;;;;;;;12.57;3.17;;;5.60;99.90;;;;;;5030501;28;20041;-75
2023/04/25 06:18:00;;;;;;;11.48;2.60;;;5.60;99.90;;;;;;5049190;28;20548;-75
2023/04/25 06:20:25;;;;;;;8.20;2.70;;;5.70;99.90;;;;;;5050544;28;20045;-75
2023/04/25 06:22:51;;;;;;;8.57;3.28;;;5.70;99.90;;;;;;5050641;28;20040;-75
2023/04/25 06:25:18;;;;;;;8.85;3.00;;;5.90;99.90;;;;;;5049659;28;20037;-74
2023/04/25 06:27:44;;;;;;;9.23;2.35;;;6.00;99.90;;;;;;5031368;28;20128;-75
2023/04/25 06:30:11;;;;;;;10.30;2.35;;;6.10;99.90;;;;;;5014530;28;20068;-76
2023/04/25 06:32:37;;;;;;;10.63;3.00;;;6.30;99.90;;;;;;5030629;28;20076;-74
2023/04/25 06:35:03;;;;;;;9.98;2.40;;;6.30;99.90;;;;;;5020623;28;20455;-73
2023/04/25 06:37:30;;;;;;;6.55;2.35;;;6.30;99.90;;;;;;5018807;28;20041;-73
2023/04/25 06:39:55;;;;;;;8.27;2.50;;;6.30;99.90;;;;;;5028876;28;20037;-73
2023/04/25 06:42:21;;;;;;;9.38;2.58;;;6.30;99.90;;;;;;5029540;28;20551;-73
2023/04/25 06:44:46;;;;;;;9.35;2.70;;;6.40;99.90;;;;;;5015952;28;20037;-74
2023/04/25 06:47:12;;;;;;;8.80;3.17;;;6.60;99.90;;;;;;5010709;28;20042;-73
2023/04/25 06:49:37;;;;;;;11.30;3.00;;;6.90;99.90;;;;;;5010396;28;20188;-74
2023/04/25 06:52:03;;;;;;;10.27;2.92;;;7.00;99.90;;;;;;5012715;28;20107;-74
2023/04/25 06:54:29;;;;;;;9.02;2.70;;;7.10;99.90;;;;;;5036345;28;20033;-74
2023/04/25 06:56:55;;;;;;;9.27;3.30;;;7.20;99.90;;;;;;5028469;28;20041;-74
2023/04/25 06:59:21;;;;;;;12.93;2.70;;;7.40;99.90;;;;;;5028405;28;20045;-75
2023/04/25 07:01:47;;;;;;;8.10;2.33;;;7.60;99.90;;;;;;5024129;28;20529;-75
2023/04/25 07:04:12;;;;;;;8.75;2.67;;;7.70;99.90;;;;;;5010180;28;20038;-75
2023/04/25 07:06:42;;;;;;;12.50;3.00;;;7.70;99.90;;;;;;5001754;28;20124;-75
2023/04/25 07:09:08;;;;;;;11.00;3.33;;;7.80;99.90;;;;;;5021264;28;20521;-75
2023/04/25 07:11:37;;;;;;;9.00;2.70;;;7.90;99.90;;;;;;5010299;28;20041;-75
2023/04/25 07:14:03;;;;;;;9.77;2.33;;;8.10;99.90;;;;;;5026457;28;20482;-75
2023/04/25 07:16:28;;;;;;;10.93;2.72;;;8.30;99.90;;;;;;5021496;28;20065;-75
2023/04/25 07:18:54;;;;;;;10.20;2.47;;;8.30;99.90;;;;;;5013824;28;20033;-75
2023/04/25 07:21:20;;;;;;;10.18;2.90;;;8.30;99.90;;;;;;5011459;28;20095;-74
2023/04/25 07:23:45;;;;;;;11.63;3.30;;;8.40;99.90;;;;;;5022011;28;20073;-74
2023/04/25 07:26:11;;;;;;;9.85;3.22;;;8.60;99.90;;;;;;5020673;28;20491;-74
2023/04/25 07:28:36;;;;;;;9.57;2.47;;;8.70;99.90;;;;;;5010217;28;20049;-74
2023/04/25 07:31:02;;;;;;;13.45;3.13;;;8.80;99.90;;;;;;5017271;28;20506;-74
2023/04/25 07:33:28;;;;;;;11.07;3.13;;;8.80;99.90;;;;;;5027544;28;20072;-74
2023/04/25 07:35:55;;;;;;;11.57;3.00;;;8.70;99.90;;;;;;5010157;28;20490;-74
2023/04/25 07:38:21;;;;;;;8.70;2.50;;;8.50;99.90;;;;;;5018757;28;20124;-74
2023/04/25 07:40:51;;;;;;;9.35;2.85;;;8.30;99.90;;;;;;5029335;28;20124;-74
2023/04/25 07:43:16;;;;;;;8.35;2.80;;;8.10;99.90;;;;;;5019423;28;20510;-74
2023/04/25 07:45:43;;;;;;;9.85;2.53;;;7.90;99.90;;;;;;5011403;28;20084;-74
2023/04/25 07:48:16;;;;;;;11.77;2.92;;;7.70;99.90;;;;;;5010102;28;20515;-74
2023/04/25 07:50:41;;;;;;;9.90;3.13;;;7.40;99.90;;;;;;5024785;28;20056;-74
2023/04/25 07:53:07;;;;;;;10.25;2.95;;;7.30;99.90;;;;;;5012498;28;20041;-74
2023/04/25 07:55:32;;;;;;;9.18;2.50;;;7.30;99.90;;;;;;4993673;28;20045;-75
2023/04/25 07:57:58;;;;;;;11.60;2.80;;;7.30;99.90;;;;;;5011787;28;20432;-75
2023/04/25 08:00:23;;;;;;;9.35;2.35;;;7.40;99.90;;;;;;5013518;28;20417;-75
2023/04/25 08:02:51;;;;;;;10.43;2.63;;;7.60;99.90;;;;;;5013301;28;20053;-74
2023/04/25 08:05:16;;;;;;;12.98;2.65;;;7.90;99.90;;;;;;5014116;28;20124;-75
2023/04/25 08:07:43;;;;;;;12.23;2.60;;;8.20;99.90;;;;;;5013388;28;20129;-75
2023/04/25 08:10:09;;;;;;;9.82;2.35;;;8.50;99.90;;;;;;5013271;28;20042;-75
2023/04/25 08:12:35;;;;;;;9.13;2.63;;;8.70;99.90;;;;;;4997057;28;20466;-75
2023/04/25 08:15:00;;;;;;;8.55;1.42;;;8.60;99.90;;;;;;5029847;28;20072;-74
2023/04/25 08:17:26;;;;;;;6.32;1.60;;;8.40;99.90;;;;;;5033724;28;20132;-75
2023/04/25 08:19:52;;;;;;;4.35;1.23;;;7.90;99.90;;;;;;5032971;28;20363;-75
2023/04/25 08:22:17;;;;;;;4.00;1.15;;;7.50;99.90;;;;;;5016125;28;20095;-75
2023/04/25 08:24:43;;;;;;;6.68;1.38;;;7.00;99.90;;;;;;5027187;28;20509;-75
2023/04/25 08:27:08;;;;;;;4.53;1.60;;;6.60;99.90;;;;;;5014669;28;20124;-75
2023/04/25 08:29:34;;;;;;;6.18;1.67;;;6.30;99.90;;;;;;5030992;28;20544;-75
2023/04/25 08:32:00;;;;;;;7.43;1.63;;;6.20;99.90;;;;;;5008555;28;20033;-75
2023/04/25 08:34:26;;;;;;;6.22;1.27;;;6.20;99.90;;;;;;5013097;28;20045;-75
2023/04/25 08:36:52;;;;;;;5.57;1.70;;;6.30;99.90;;;;;;5013260;28;20051;-74
2023/04/25 08:39:18;;;;;;;3.83;1.20;;;6.50;99.90;;;;;;5015096;28;20041;-75
2023/04/25 08:41:44;;;;;;;4.65;1.70;;;6.70;99.90;;;;;;5032115;28;20328;-75
2023/04/25 08:44:11;;;;;;;4.47;1.58;;;6.90;99.90;;;;;;5023382;28;20503;-75
2023/04/25 08:46:40;;;;;;;6.43;1.60;;;7.10;99.90;;;;;;4997719;28;20048;-75
2023/04/25 08:49:07;;;;;;;6.78;1.80;;;7.30;99.90;;;;;;5032054;28;20045;-75
2023/04/25 08:51:33;;;;;;;7.47;1.83;;;7.70;99.90;;;;;;5008256;28;20549;-75
2023/04/25 08:54:13;;;;;;;6.97;1.90;;;8.10;99.90;;;;;;5008331;28;20026;-75
2023/04/25 08:56:43;;;;;;;4.95;1.52;;;8.70;99.90;;;;;;5012937;28;20168;-75
2023/04/25 08:59:10;;;;;;;6.43;1.70;;;9.00;99.90;;;;;;4996660;28;20045;-75
2023/04/25 09:01:35;;;;;;;8.50;2.50;;;9.80;99.90;;;;;;5013822;28;20038;-75
2023/04/25 09:04:01;;;;;;;11.00;2.20;;;10.90;99.90;;;;;;5012389;28;20340;-75
2023/04/25 09:06:28;;;;;;;7.20;2.28;;;11.80;99.90;;;;;;5029297;28;20049;-75
2023/04/25 09:08:54;;;;;;;4.68;1.70;;;12.50;99.90;;;;;;5025112;28;20120;-75
2023/04/25 09:11:19;;;;;;;8.23;2.28;;;13.10;99.90;;;;;;5012182;28;20121;-75
2023/04/25 09:13:45;;;;;;;7.05;1.92;;;13.50;99.90;;;;;;5012109;28;20510;-75
2023/04/25 09:16:11;;;;;;;7.15;2.00;;;14.10;99.90;;;;;;5029116;28;20037;-76
2023/04/25 09:18:37;;;;;;;5.55;1.77;;;14.60;99.90;;;;;;5020516;28;20077;-76
2023/04/25 09:21:11;;;;;;;7.88;1.67;;;14.50;99.90;;;;;;4996079;28;20100;-76
2023/04/25 09:23:47;;;;;;;6.82;1.90;;;14.00;99.90;;;;;;4996519;28;20606;-76
2023/04/25 09:26:18;;;;;;;7.38;2.15;;;13.20;99.90;;;;;;5014279;28;20079;-76
2023/04/25 09:28:45;;;;;;;6.95;1.90;;;12.80;99.90;;;;;;4996445;28;20073;-75
2023/04/25 09:31:11;;;;;;;9.57;1.90;;;12.90;99.90;;;;;;4996218;28;20044;-76
2023/04/25 09:33:37;;;;;;;7.75;1.92;;;13.30;99.90;;;;;;5011997;28;20627;-75
2023/04/25 09:36:07;;;;;;;8.73;1.92;;;13.70;99.90;;;;;;5015555;28;20045;-76
2023/04/25 09:38:43;;;;;;;8.60;1.63;;;14.10;99.90;;;;;;5025008;28;20081;-76
2023/04/25 09:41:10;;;;;;;7.53;1.90;;;14.40;99.90;;;;;;5015877;28;20084;-75
2023/04/25 09:43:36;;;;;;;5.65;1.60;;;14.70;99.90;;;;;;5031563;28;20041;-76
2023/04/25 09:46:02;;;;;;;5.90;2.00;;;15.00;99.90;;;;;;5030414;28;20045;-76
2023/04/25 09:48:28;;;;;;;6.55;1.88;;;15.30;99.90;;;;;;5031209;28;20049;-75
2023/04/25 09:51:06;;;;;;;7.00;2.20;;;15.30;99.90;;;;;;5029793;28;20099;-76
2023/04/25 09:53:39;;;;;;;7.22;1.70;;;15.30;99.90;;;;;;5019657;28;20120;-75
2023/04/25 09:56:07;;;;;;;7.65;1.67;;;15.10;99.90;;;;;;5047956;28;20037;-74
2023/04/25 09:58:34;;;;;;;8.63;1.85;;;15.00;99.90;;;;;;5031316;28;20056;-75
2023/04/25 10:01:10;;;;;;;6.20;1.63;;;15.10;99.90;;;;;;5013543;28;20041;-75
2023/04/25 10:03:39;;;;;;;7.10;1.70;;;15.30;99.90;;;;;;5022145;28;20312;-75
2023/04/25 10:06:18;;;;;;;6.13;1.70;;;15.30;99.90;;;;;;5037911;28;20045;-75
2023/04/25 10:08:44;;;;;;;6.18;1.63;;;15.50;99.90;;;;;;5012918;28;20521;-75
2023/04/25 10:11:10;;;;;;;5.78;1.60;;;15.80;99.90;;;;;;5014158;28;20324;-75
2023/04/25 10:13:36;;;;;;;4.78;1.70;;;15.90;99.90;;;;;;5011048;28;20037;-75
2023/04/25 10:16:04;;;;;;;4.30;1.30;;;15.80;99.90;;;;;;5025651;28;20045;-75
2023/04/25 10:18:31;;;;;;;4.80;1.70;;;15.30;99.90;;;;;;5025327;28;20038;-74
2023/04/25 10:20:59;;;;;;;6.85;1.70;;;15.10;99.90;;;;;;5024909;28;20045;-74
2023/04/25 10:23:26;;;;;;;7.03;1.77;;;14.60;99.90;;;;;;5031628;28;20047;-75
2023/04/25 10:25:53;;;;;;;6.80;1.67;;;13.70;99.90;;;;;;5016621;28;20159;-75
2023/04/25 10:28:20;;;;;;;7.25;2.03;;;12.70;99.90;;;;;;5028155;28;20065;-75
2023/04/25 10:31:06;;;;;;;10.30;2.33;;;11.60;99.90;;;;;;5015059;28;20397;-74
2023/04/25 10:33:34;;;;;;;9.13;2.25;;;10.60;99.90;;;;;;5022728;28;20033;-75
2023/04/25 10:36:17;;;;;;;10.82;2.80;;;9.90;99.90;;;;;;5030483;28;20042;-74
2023/04/25 10:38:43;;;;;;;7.07;2.07;;;9.60;99.90;;;;;;5023032;28;20041;-74
2023/04/25 10:41:11;;;;;;;8.88;2.50;;;9.40;99.90;;;;;;5036417;28;20029;-74
2023/04/25 10:43:44;;;;;;;8.55;2.40;;;9.40;99.90;;;;;;5012942;28;20120;-74
2023/04/25 10:46:31;;;;;;;;;;;9.50;99.90;;;;;;5021791;28;20065;-75
2023/04/25 10:49:01;;;;;;;5.55;1.80;;;9.60;99.90;;;;;;5024917;28;19927;-75
2023/04/25 10:51:35;;;;;;;7.72;2.30;;;9.60;99.90;;;;;;5012536;28;20130;-75
2023/04/25 10:54:05;;;;;;;6.93;1.73;;;9.50;99.90;;;;;;5022125;28;20045;-74
2023/04/25 10:56:44;;;;;;;5.78;1.83;;;9.60;99.90;;;;;;4994358;28;20046;-74
2023/04/25 10:59:20;;;;;;;7.07;1.80;;;9.60;99.90;;;;;;5010489;28;20046;-74
2023/04/25 11:01:54;;;;;;;8.27;2.05;;;10.00;99.90;;;;;;5000160;28;20042;-74
2023/04/25 11:04:31;;;;;;;6.80;2.00;;;10.20;99.90;;;;;;5022826;28;20049;-75
2023/04/25 11:07:22;;;;;;;5.65;1.88;;;10.40;99.90;;;;;;5005366;28;20042;-77
2023/04/25 11:09:49;;;;;;;8.85;2.30;;;10.60;99.90;;;;;;5025213;28;20037;-75
2023/04/25 11:12:16;;;;;;;7.53;1.98;;;11.20;99.90;;;;;;5030096;28;20510;-75
2023/04/25 11:14:42;;;;;;;8.07;2.40;;;11.80;99.90;;;;;;5033867;28;20040;-76
2023/04/25 11:17:18;;;;;;;8.13;2.10;;;12.90;99.90;;;;;;5016520;28;20038;-77
2023/04/25 11:19:43;;;;;;;8.88;2.17;;;14.10;99.90;;;;;;5018390;28;20045;-76
2023/04/25 11:22:10;;;;;;;6.40;1.95;;;14.60;99.90;;;;;;5013208;28;20566;-76
2023/04/25 11:24:38;;;;;;;6.43;1.92;;;14.80;99.90;;;;;;5030434;28;20049;-75
2023/04/25 11:27:07;;;;;;;5.70;1.75;;;14.80;99.90;;;;;;5033147;28;20490;-75
2023/04/25 11:29:34;;;;;;;5.97;1.75;;;14.80;99.90;;;;;;5028228;28;20033;-75
2023/04/25 11:32:01;;;;;;;5.70;1.70;;;14.70;99.90;;;;;;5013633;28;20069;-75
2023/04/25 11:34:30;;;;;;;8.27;2.17;;;14.90;99.90;;;;;;5005418;28;20072;-75
2023/04/25 11:36:56;;;;;;;7.10;2.00;;;15.30;99.90;;;;;;5043615;28;20071;-75
2023/04/25 11:39:23;;;;;;;5.72;1.70;;;15.30;99.90;;;;;;5025873;28;20059;-75
2023/04/25 11:41:49;;;;;;;6.57;1.60;;;15.20;99.90;;;;;;5017799;28;20394;-75
2023/04/25 11:44:19;;;;;;;4.65;1.25;;;15.50;99.90;;;;;;5033224;28;20461;-75
2023/04/25 11:46:46;;;;;;;5.45;1.60;;;15.90;99.90;;;;;;5033384;28;20060;-75
2023/04/25 11:49:12;;;;;;;4.10;1.52;;;15.50;99.20;;;;;;5008645;28;20545;-75
2023/04/25 11:51:48;;;;;;;7.65;1.85;;;14.70;99.90;;;;;;5033620;28;20060;-75
2023/04/25 11:54:14;;;;;;;6.57;1.60;;;13.90;90.80;;;;;;5016184;28;20029;-75
2023/04/25 11:56:44;;;;;;;4.63;1.60;;;14.00;99.90;;;;;;5034250;28;20124;-75
2023/04/25 11:59:09;;;;;;;5.40;1.25;;;14.60;99.90;;;;;;5033036;28;20033;-75
2023/04/25 12:01:38;;;;;;;7.47;1.10;;;14.60;91.10;;;;;;5016984;28;20037;-76
2023/04/25 12:04:23;;;;;;;6.60;1.73;;;14.00;73.20;;;;;;5014316;28;20057;-75
2023/04/25 12:06:51;;;;;;;4.97;1.50;;;13.40;77.30;;;;;;5013648;28;20041;-75
2023/04/25 12:09:21;;;;;;;6.13;1.88;;;13.10;90.90;;;;;;5025445;28;20120;-75
2023/04/25 12:11:55;;;;;;;9.38;1.92;;;12.70;99.90;;;;;;5032214;28;20069;-75
2023/04/25 12:14:24;;;;;;;7.07;1.67;;;12.10;99.90;;;;;;5007638;28;20073;-75
2023/04/25 12:16:51;;;;;;;8.57;2.05;;;11.40;99.90;;;;;;5016731;28;20382;-75
2023/04/25 12:19:17;;;;;;;6.30;2.80;;;11.50;99.90;;;;;;5032973;28;20049;-75
2023/04/25 12:21:44;;;;;;;7.13;2.00;;;12.60;99.90;;;;;;5007881;28;20128;-75
2023/04/25 12:24:12;;;;;;;7.35;2.08;;;13.90;99.90;;;;;;5018654;28;20084;-76
2023/04/25 12:27:02;;;;;;;8.30;2.30;;;15.00;99.90;;;;;;5013499;28;20049;-76
2023/04/25 12:29:33;;;;;;;6.93;2.13;;;15.50;99.90;;;;;;5024176;28;20413;-76
2023/04/25 12:32:01;;;;;;;7.15;2.00;;;14.60;99.80;;;;;;5013106;28;20379;-75
2023/04/25 12:34:27;;;;;;;8.10;1.85;;;13.50;99.90;;;;;;5024186;28;20046;-75
2023/04/25 12:36:53;;;;;;;8.35;2.10;;;12.60;99.90;;;;;;5021188;28;20045;-75
2023/04/25 12:39:23;;;;;;;8.32;2.13;;;12.00;99.90;;;;;;5031925;28;20091;-75
2023/04/25 12:41:49;;;;;;;6.35;1.60;;;12.30;99.90;;;;;;5015535;28;20041;-75
2023/04/25 12:44:15;;;;;;;6.82;1.95;;;12.80;99.90;;;;;;5014565;28;20048;-76
2023/04/25 12:46:44;;;;;;;6.22;1.55;;;12.70;99.90;;;;;;5027161;28;20045;-75